sensor_id;sensor_type;location;lat;lon;timestamp;pressure;altitude;pressure_sealevel;temperature;humidity
48862;BME280;34681;49.188;-0.374;2023-05-24T00:01:56;102289.44;;;15.77;nan
48862;BME280;34681;49.188;-0.374;2023-05-24T00:04:21;102292.34;;;15.75;nan
48862;BME280;34681;49.188;-0.374;2023-05-24T00:06:49;102298.41;;;15.69;nan
48862;BME280;34681;49.188;-0.374;2023-05-24T00:09:15;102299.81;;;15.54;nan
48862;BME280;34681;49.188;-0.374;2023-05-24T00:11:40;102294.28;;;15.44;nan
48862;BME280;34681;49.188;-0.374;2023-05-24T00:14:05;102293.94;;;15.37;nan
48862;BME280;34681;49.188;-0.374;2023-05-24T00:16:31;102291.91;;;15.30;nan
48862;BME280;34681;49.188;-0.374;2023-05-24T00:18:56;102299.69;;;15.15;nan
48862;BME280;34681;49.188;-0.374;2023-05-24T00:21:23;102291.47;;;14.94;nan
48862;BME280;34681;49.188;-0.374;2023-05-24T00:23:49;102292.16;;;14.86;nan
48862;BME280;34681;49.188;-0.374;2023-05-24T00:26:16;102283.38;;;14.72;nan
48862;BME280;34681;49.188;-0.374;2023-05-24T00:28:41;102288.81;;;14.41;nan
48862;BME280;34681;49.188;-0.374;2023-05-24T00:31:06;102295.44;;;14.39;nan
48862;BME280;34681;49.188;-0.374;2023-05-24T00:33:32;102305.63;;;14.06;nan
48862;BME280;34681;49.188;-0.374;2023-05-24T00:35:58;102299.09;;;14.18;nan
48862;BME280;34681;49.188;-0.374;2023-05-24T00:38:26;102292.50;;;14.10;nan
48862;BME280;34681;49.188;-0.374;2023-05-24T00:40:53;102300.47;;;13.92;nan
48862;BME280;34681;49.188;-0.374;2023-05-24T00:43:21;102291.03;;;13.62;nan
48862;BME280;34681;49.188;-0.374;2023-05-24T00:45:46;102296.06;;;13.89;nan
48862;BME280;34681;49.188;-0.374;2023-05-24T00:48:12;102294.63;;;14.06;nan
48862;BME280;34681;49.188;-0.374;2023-05-24T00:50:38;102288.94;;;14.19;nan
48862;BME280;34681;49.188;-0.374;2023-05-24T00:53:05;102288.91;;;13.98;nan
48862;BME280;34681;49.188;-0.374;2023-05-24T00:55:32;102283.56;;;14.17;nan
48862;BME280;34681;49.188;-0.374;2023-05-24T00:57:59;102281.47;;;14.10;nan
48862;BME280;34681;49.188;-0.374;2023-05-24T01:00:25;102286.41;;;14.27;nan
48862;BME280;34681;49.188;-0.374;2023-05-24T01:02:51;102281.13;;;13.71;nan
48862;BME280;34681;49.188;-0.374;2023-05-24T01:05:17;102278.56;;;13.58;nan
48862;BME280;34681;49.188;-0.374;2023-05-24T01:07:55;102268.81;;;13.54;nan
48862;BME280;34681;49.188;-0.374;2023-05-24T01:10:42;102268.19;;;13.51;nan
48862;BME280;34681;49.188;-0.374;2023-05-24T01:13:25;102275.09;;;14.09;nan
48862;BME280;34681;49.188;-0.374;2023-05-24T01:16:06;102286.03;;;13.67;nan
48862;BME280;34681;49.188;-0.374;2023-05-24T01:18:39;102275.44;;;13.52;nan
48862;BME280;34681;49.188;-0.374;2023-05-24T01:21:15;102273.88;;;13.27;nan
48862;BME280;34681;49.188;-0.374;2023-05-24T01:24:02;102268.97;;;13.19;nan
48862;BME280;34681;49.188;-0.374;2023-05-24T01:27:05;102274.34;;;13.32;nan
48862;BME280;34681;49.188;-0.374;2023-05-24T01:29:31;102280.38;;;13.26;nan
48862;BME280;34681;49.188;-0.374;2023-05-24T01:31:57;102275.84;;;13.36;nan
48862;BME280;34681;49.188;-0.374;2023-05-24T01:34:26;102280.44;;;13.58;nan
48862;BME280;34681;49.188;-0.374;2023-05-24T01:36:52;102279.25;;;13.71;nan
48862;BME280;34681;49.188;-0.374;2023-05-24T01:39:19;102281.09;;;13.39;nan
48862;BME280;34681;49.188;-0.374;2023-05-24T01:42:06;102275.31;;;13.53;nan
48862;BME280;34681;49.188;-0.374;2023-05-24T01:44:46;102277.81;;;13.45;nan
48862;BME280;34681;49.188;-0.374;2023-05-24T01:50:15;102266.22;;;13.30;nan
48862;BME280;34681;49.188;-0.374;2023-05-24T01:52:43;102268.94;;;13.53;nan
48862;BME280;34681;49.188;-0.374;2023-05-24T01:55:12;102267.56;;;13.58;nan
48862;BME280;34681;49.188;-0.374;2023-05-24T01:57:39;102277.09;;;13.32;nan
48862;BME280;34681;49.188;-0.374;2023-05-24T02:00:09;102268.13;;;12.85;nan
48862;BME280;34681;49.188;-0.374;2023-05-24T02:02:35;102272.84;;;12.60;nan
48862;BME280;34681;49.188;-0.374;2023-05-24T02:05:00;102271.22;;;12.69;nan
48862;BME280;34681;49.188;-0.374;2023-05-24T02:07:26;102273.50;;;12.86;nan
48862;BME280;34681;49.188;-0.374;2023-05-24T02:09:51;102267.47;;;12.81;nan
48862;BME280;34681;49.188;-0.374;2023-05-24T02:12:17;102265.50;;;12.94;nan
48862;BME280;34681;49.188;-0.374;2023-05-24T02:14:42;102270.84;;;12.74;nan
48862;BME280;34681;49.188;-0.374;2023-05-24T02:17:07;102261.88;;;12.83;nan
48862;BME280;34681;49.188;-0.374;2023-05-24T02:19:33;102261.38;;;12.78;nan
48862;BME280;34681;49.188;-0.374;2023-05-24T02:22:01;102268.50;;;12.91;nan
48862;BME280;34681;49.188;-0.374;2023-05-24T02:24:26;102267.63;;;13.02;nan
48862;BME280;34681;49.188;-0.374;2023-05-24T02:26:51;102268.50;;;13.25;nan
48862;BME280;34681;49.188;-0.374;2023-05-24T02:29:17;102275.47;;;13.18;nan
48862;BME280;34681;49.188;-0.374;2023-05-24T02:31:42;102277.00;;;13.22;nan
48862;BME280;34681;49.188;-0.374;2023-05-24T02:34:08;102271.00;;;12.94;nan
48862;BME280;34681;49.188;-0.374;2023-05-24T02:36:33;102272.97;;;13.15;nan
48862;BME280;34681;49.188;-0.374;2023-05-24T02:39:00;102267.22;;;13.07;nan
48862;BME280;34681;49.188;-0.374;2023-05-24T02:41:26;102265.59;;;13.04;nan
48862;BME280;34681;49.188;-0.374;2023-05-24T02:43:51;102275.59;;;13.16;nan
48862;BME280;34681;49.188;-0.374;2023-05-24T02:46:16;102273.72;;;13.06;nan
48862;BME280;34681;49.188;-0.374;2023-05-24T02:48:42;102270.59;;;13.10;nan
48862;BME280;34681;49.188;-0.374;2023-05-24T02:51:07;102260.25;;;13.25;nan
48862;BME280;34681;49.188;-0.374;2023-05-24T02:53:32;102269.72;;;12.99;nan
48862;BME280;34681;49.188;-0.374;2023-05-24T02:55:58;102277.22;;;12.97;nan
48862;BME280;34681;49.188;-0.374;2023-05-24T02:58:24;102274.59;;;12.73;nan
48862;BME280;34681;49.188;-0.374;2023-05-24T03:00:53;102271.09;;;12.59;nan
48862;BME280;34681;49.188;-0.374;2023-05-24T03:03:18;102277.59;;;12.70;nan
48862;BME280;34681;49.188;-0.374;2023-05-24T03:05:44;102279.22;;;12.72;nan
48862;BME280;34681;49.188;-0.374;2023-05-24T03:08:09;102269.59;;;12.55;nan
48862;BME280;34681;49.188;-0.374;2023-05-24T03:10:34;102274.84;;;12.70;nan
48862;BME280;34681;49.188;-0.374;2023-05-24T03:13:00;102278.97;;;12.64;nan
48862;BME280;34681;49.188;-0.374;2023-05-24T03:15:25;102280.97;;;12.84;nan
48862;BME280;34681;49.188;-0.374;2023-05-24T03:17:51;102276.22;;;13.31;nan
48862;BME280;34681;49.188;-0.374;2023-05-24T03:20:16;102276.69;;;13.47;nan
48862;BME280;34681;49.188;-0.374;2023-05-24T03:22:42;102276.81;;;13.46;nan
48862;BME280;34681;49.188;-0.374;2023-05-24T03:25:07;102273.84;;;13.49;nan
48862;BME280;34681;49.188;-0.374;2023-05-24T03:27:34;102281.84;;;13.18;nan
48862;BME280;34681;49.188;-0.374;2023-05-24T03:30:00;102266.50;;;13.27;nan
48862;BME280;34681;49.188;-0.374;2023-05-24T03:32:25;102271.84;;;13.17;nan
48862;BME280;34681;49.188;-0.374;2023-05-24T03:34:50;102277.88;;;13.77;nan
48862;BME280;34681;49.188;-0.374;2023-05-24T03:37:17;102267.88;;;13.21;nan
48862;BME280;34681;49.188;-0.374;2023-05-24T03:39:42;102260.63;;;12.87;nan
48862;BME280;34681;49.188;-0.374;2023-05-24T03:42:07;102261.13;;;13.03;nan
48862;BME280;34681;49.188;-0.374;2023-05-24T03:44:33;102266.84;;;12.89;nan
48862;BME280;34681;49.188;-0.374;2023-05-24T03:46:58;102259.25;;;13.04;nan
48862;BME280;34681;49.188;-0.374;2023-05-24T03:49:24;102263.50;;;13.08;nan
48862;BME280;34681;49.188;-0.374;2023-05-24T03:51:49;102255.13;;;12.98;nan
48862;BME280;34681;49.188;-0.374;2023-05-24T03:54:15;102256.41;;;12.83;nan
48862;BME280;34681;49.188;-0.374;2023-05-24T03:56:42;102255.75;;;12.90;nan
48862;BME280;34681;49.188;-0.374;2023-05-24T03:59:07;102263.00;;;13.25;nan
48862;BME280;34681;49.188;-0.374;2023-05-24T04:01:32;102257.75;;;13.33;nan
48862;BME280;34681;49.188;-0.374;2023-05-24T04:03:59;102251.34;;;13.44;nan
48862;BME280;34681;49.188;-0.374;2023-05-24T04:06:25;102256.88;;;13.76;nan
48862;BME280;34681;49.188;-0.374;2023-05-24T04:08:59;102266.22;;;13.30;nan
48862;BME280;34681;49.188;-0.374;2023-05-24T04:11:25;102257.75;;;13.97;nan
48862;BME280;34681;49.188;-0.374;2023-05-24T04:13:53;102264.63;;;14.03;nan
48862;BME280;34681;49.188;-0.374;2023-05-24T04:16:20;102262.50;;;13.74;nan
48862;BME280;34681;49.188;-0.374;2023-05-24T04:18:49;102265.03;;;14.19;nan
48862;BME280;34681;49.188;-0.374;2023-05-24T04:21:14;102267.03;;;14.38;nan
48862;BME280;34681;49.188;-0.374;2023-05-24T04:23:40;102261.53;;;14.49;nan
48862;BME280;34681;49.188;-0.374;2023-05-24T04:26:05;102266.75;;;14.52;nan
48862;BME280;34681;49.188;-0.374;2023-05-24T04:28:31;102264.22;;;14.28;nan
48862;BME280;34681;49.188;-0.374;2023-05-24T04:30:58;102271.81;;;14.36;nan
48862;BME280;34681;49.188;-0.374;2023-05-24T04:33:23;102265.81;;;14.73;nan
48862;BME280;34681;49.188;-0.374;2023-05-24T04:35:48;102273.66;;;14.98;nan
48862;BME280;34681;49.188;-0.374;2023-05-24T04:38:14;102274.19;;;14.61;nan
48862;BME280;34681;49.188;-0.374;2023-05-24T04:40:39;102275.25;;;14.70;nan
48862;BME280;34681;49.188;-0.374;2023-05-24T04:43:05;102277.75;;;15.13;nan
48862;BME280;34681;49.188;-0.374;2023-05-24T04:45:32;102284.50;;;15.30;nan
48862;BME280;34681;49.188;-0.374;2023-05-24T04:47:58;102292.03;;;15.68;nan
48862;BME280;34681;49.188;-0.374;2023-05-24T04:50:23;102293.47;;;15.63;nan
48862;BME280;34681;49.188;-0.374;2023-05-24T04:52:49;102302.72;;;15.52;nan
48862;BME280;34681;49.188;-0.374;2023-05-24T04:55:15;102307.47;;;15.81;nan
48862;BME280;34681;49.188;-0.374;2023-05-24T04:57:40;102298.88;;;16.03;nan
48862;BME280;34681;49.188;-0.374;2023-05-24T05:00:06;102302.22;;;15.97;nan
48862;BME280;34681;49.188;-0.374;2023-05-24T05:02:32;102309.50;;;16.37;nan
48862;BME280;34681;49.188;-0.374;2023-05-24T05:04:57;102303.09;;;16.55;nan
48862;BME280;34681;49.188;-0.374;2023-05-24T05:07:23;102303.81;;;17.04;nan
48862;BME280;34681;49.188;-0.374;2023-05-24T05:09:48;102300.88;;;17.16;nan
48862;BME280;34681;49.188;-0.374;2023-05-24T05:12:14;102297.03;;;17.54;nan
48862;BME280;34681;49.188;-0.374;2023-05-24T05:14:39;102293.97;;;17.29;nan
48862;BME280;34681;49.188;-0.374;2023-05-24T05:17:04;102298.38;;;17.22;nan
48862;BME280;34681;49.188;-0.374;2023-05-24T05:19:30;102300.28;;;17.22;nan
48862;BME280;34681;49.188;-0.374;2023-05-24T05:21:55;102300.88;;;17.16;nan
48862;BME280;34681;49.188;-0.374;2023-05-24T05:24:20;102305.66;;;17.78;nan
48862;BME280;34681;49.188;-0.374;2023-05-24T05:26:46;102300.31;;;18.56;nan
48862;BME280;34681;49.188;-0.374;2023-05-24T05:29:11;102303.25;;;19.32;nan
48862;BME280;34681;49.188;-0.374;2023-05-24T05:31:36;102294.38;;;18.95;nan
48862;BME280;34681;49.188;-0.374;2023-05-24T05:34:03;102295.19;;;19.13;nan
48862;BME280;34681;49.188;-0.374;2023-05-24T05:36:29;102294.56;;;19.01;nan
48862;BME280;34681;49.188;-0.374;2023-05-24T05:38:55;102295.28;;;18.77;nan
48862;BME280;34681;49.188;-0.374;2023-05-24T05:41:20;102300.38;;;18.03;nan
48862;BME280;34681;49.188;-0.374;2023-05-24T05:43:46;102297.16;;;18.51;nan
48862;BME280;34681;49.188;-0.374;2023-05-24T05:46:11;102300.72;;;18.79;nan
48862;BME280;34681;49.188;-0.374;2023-05-24T05:48:39;102301.19;;;18.57;nan
48862;BME280;34681;49.188;-0.374;2023-05-24T05:51:04;102306.31;;;18.08;nan
48862;BME280;34681;49.188;-0.374;2023-05-24T05:53:32;102312.53;;;18.28;nan
48862;BME280;34681;49.188;-0.374;2023-05-24T05:55:58;102312.81;;;19.80;nan
48862;BME280;34681;49.188;-0.374;2023-05-24T05:58:23;102306.97;;;20.32;nan
48862;BME280;34681;49.188;-0.374;2023-05-24T06:00:48;102312.31;;;21.07;nan
48862;BME280;34681;49.188;-0.374;2023-05-24T06:03:14;102312.31;;;21.63;nan
48862;BME280;34681;49.188;-0.374;2023-05-24T06:05:40;102315.72;;;21.34;nan
48862;BME280;34681;49.188;-0.374;2023-05-24T06:08:05;102319.44;;;22.88;nan
48862;BME280;34681;49.188;-0.374;2023-05-24T06:10:31;102317.63;;;23.39;nan
48862;BME280;34681;49.188;-0.374;2023-05-24T06:12:56;102312.59;;;22.90;nan
48862;BME280;34681;49.188;-0.374;2023-05-24T06:15:21;102325.56;;;24.23;nan
48862;BME280;34681;49.188;-0.374;2023-05-24T06:17:48;102329.22;;;25.15;nan
48862;BME280;34681;49.188;-0.374;2023-05-24T06:20:14;102333.28;;;25.41;nan
48862;BME280;34681;49.188;-0.374;2023-05-24T06:22:41;102337.34;;;25.80;nan
48862;BME280;34681;49.188;-0.374;2023-05-24T06:25:07;102333.81;;;26.19;nan
48862;BME280;34681;49.188;-0.374;2023-05-24T06:27:32;102329.16;;;26.85;nan
48862;BME280;34681;49.188;-0.374;2023-05-24T06:29:57;102329.53;;;27.35;nan
48862;BME280;34681;49.188;-0.374;2023-05-24T06:32:23;102328.63;;;27.55;nan
48862;BME280;34681;49.188;-0.374;2023-05-24T06:34:48;102341.03;;;27.98;nan
48862;BME280;34681;49.188;-0.374;2023-05-24T06:37:13;102348.31;;;29.44;nan
48862;BME280;34681;49.188;-0.374;2023-05-24T06:39:42;102353.81;;;29.94;nan
48862;BME280;34681;49.188;-0.374;2023-05-24T06:42:07;102346.69;;;28.93;nan
48862;BME280;34681;49.188;-0.374;2023-05-24T06:44:32;102339.75;;;29.76;nan
48862;BME280;34681;49.188;-0.374;2023-05-24T06:47:00;102342.72;;;29.01;nan
48862;BME280;34681;49.188;-0.374;2023-05-24T06:49:26;102336.72;;;29.34;nan
48862;BME280;34681;49.188;-0.374;2023-05-24T06:51:51;102343.88;;;28.87;nan
48862;BME280;34681;49.188;-0.374;2023-05-24T06:54:17;102333.50;;;27.86;nan
48862;BME280;34681;49.188;-0.374;2023-05-24T06:56:42;102343.38;;;28.02;nan
48862;BME280;34681;49.188;-0.374;2023-05-24T06:59:08;102341.38;;;29.47;nan
48862;BME280;34681;49.188;-0.374;2023-05-24T07:01:33;102338.94;;;28.57;nan
48862;BME280;34681;49.188;-0.374;2023-05-24T07:03:58;102335.31;;;27.74;nan
48862;BME280;34681;49.188;-0.374;2023-05-24T07:06:23;102335.31;;;29.25;nan
48862;BME280;34681;49.188;-0.374;2023-05-24T07:08:49;102334.06;;;31.43;nan
48862;BME280;34681;49.188;-0.374;2023-05-24T07:11:14;102331.47;;;30.41;nan
48862;BME280;34681;49.188;-0.374;2023-05-24T07:13:40;102335.31;;;31.12;nan
48862;BME280;34681;49.188;-0.374;2023-05-24T07:16:05;102329.88;;;31.10;nan
48862;BME280;34681;49.188;-0.374;2023-05-24T07:18:31;102323.97;;;31.00;nan
48862;BME280;34681;49.188;-0.374;2023-05-24T07:20:56;102327.97;;;30.27;nan
48862;BME280;34681;49.188;-0.374;2023-05-24T07:23:22;102329.88;;;32.26;nan
48862;BME280;34681;49.188;-0.374;2023-05-24T07:25:48;102329.06;;;34.03;nan
48862;BME280;34681;49.188;-0.374;2023-05-24T07:28:13;102323.69;;;31.72;nan
48862;BME280;34681;49.188;-0.374;2023-05-24T07:30:40;102324.66;;;31.66;nan
48862;BME280;34681;49.188;-0.374;2023-05-24T07:33:05;102337.19;;;32.84;nan
48862;BME280;34681;49.188;-0.374;2023-05-24T07:35:31;102340.31;;;33.55;nan
48862;BME280;34681;49.188;-0.374;2023-05-24T07:37:56;102346.28;;;33.53;nan
48862;BME280;34681;49.188;-0.374;2023-05-24T07:40:22;102357.22;;;33.88;nan
48862;BME280;34681;49.188;-0.374;2023-05-24T07:42:48;102344.09;;;34.85;nan
48862;BME280;34681;49.188;-0.374;2023-05-24T07:45:13;102339.84;;;34.01;nan
48862;BME280;34681;49.188;-0.374;2023-05-24T07:47:39;102355.56;;;35.32;nan
48862;BME280;34681;49.188;-0.374;2023-05-24T07:50:05;102345.47;;;34.50;nan
48862;BME280;34681;49.188;-0.374;2023-05-24T07:52:31;102342.63;;;36.14;nan
48862;BME280;34681;49.188;-0.374;2023-05-24T07:54:56;102345.75;;;36.13;nan
48862;BME280;34681;49.188;-0.374;2023-05-24T07:57:21;102340.78;;;36.91;nan
48862;BME280;34681;49.188;-0.374;2023-05-24T07:59:47;102352.69;;;37.44;nan
48862;BME280;34681;49.188;-0.374;2023-05-24T08:02:13;102353.50;;;39.85;nan
48862;BME280;34681;49.188;-0.374;2023-05-24T08:04:39;102359.34;;;38.54;nan
48862;BME280;34681;49.188;-0.374;2023-05-24T08:07:05;102357.31;;;36.94;nan
48862;BME280;34681;49.188;-0.374;2023-05-24T08:09:31;102351.53;;;37.50;nan
48862;BME280;34681;49.188;-0.374;2023-05-24T08:12:04;102349.69;;;37.90;nan
48862;BME280;34681;49.188;-0.374;2023-05-24T08:14:29;102360.94;;;38.75;nan
48862;BME280;34681;49.188;-0.374;2023-05-24T08:16:55;102358.78;;;39.25;nan
48862;BME280;34681;49.188;-0.374;2023-05-24T08:19:20;102355.84;;;38.12;nan
48862;BME280;34681;49.188;-0.374;2023-05-24T08:21:46;102351.31;;;36.75;nan
48862;BME280;34681;49.188;-0.374;2023-05-24T08:24:11;102347.22;;;33.25;nan
48862;BME280;34681;49.188;-0.374;2023-05-24T08:26:37;102342.53;;;32.06;nan
48862;BME280;34681;49.188;-0.374;2023-05-24T08:29:02;102344.38;;;31.49;nan
48862;BME280;34681;49.188;-0.374;2023-05-24T08:31:29;102349.44;;;31.12;nan
48862;BME280;34681;49.188;-0.374;2023-05-24T08:33:54;102352.41;;;32.78;nan
48862;BME280;34681;49.188;-0.374;2023-05-24T08:36:21;102366.31;;;33.46;nan
48862;BME280;34681;49.188;-0.374;2023-05-24T08:38:47;102352.00;;;32.12;nan
48862;BME280;34681;49.188;-0.374;2023-05-24T08:41:12;102355.31;;;30.98;nan
48862;BME280;34681;49.188;-0.374;2023-05-24T08:43:37;102342.06;;;30.57;nan
48862;BME280;34681;49.188;-0.374;2023-05-24T08:46:04;102359.94;;;30.39;nan
48862;BME280;34681;49.188;-0.374;2023-05-24T08:48:30;102353.69;;;30.91;nan
48862;BME280;34681;49.188;-0.374;2023-05-24T08:51:03;102362.06;;;29.96;nan
48862;BME280;34681;49.188;-0.374;2023-05-24T08:53:29;102348.59;;;29.61;nan
48862;BME280;34681;49.188;-0.374;2023-05-24T08:55:55;102351.00;;;28.39;nan
48862;BME280;34681;49.188;-0.374;2023-05-24T08:58:20;102353.16;;;25.53;nan
48862;BME280;34681;49.188;-0.374;2023-05-24T09:00:46;102334.09;;;25.35;nan
48862;BME280;34681;49.188;-0.374;2023-05-24T09:03:11;102343.75;;;25.67;nan
48862;BME280;34681;49.188;-0.374;2023-05-24T09:05:39;102357.13;;;24.81;nan
48862;BME280;34681;49.188;-0.374;2023-05-24T09:08:05;102352.13;;;24.12;nan
48862;BME280;34681;49.188;-0.374;2023-05-24T09:10:32;102339.19;;;23.31;nan
48862;BME280;34681;49.188;-0.374;2023-05-24T09:13:00;102343.13;;;22.69;nan
48862;BME280;34681;49.188;-0.374;2023-05-24T09:15:26;102341.16;;;22.32;nan
48862;BME280;34681;49.188;-0.374;2023-05-24T09:17:52;102343.84;;;23.09;nan
48862;BME280;34681;49.188;-0.374;2023-05-24T09:20:17;102338.34;;;22.09;nan
48862;BME280;34681;49.188;-0.374;2023-05-24T09:22:44;102338.38;;;22.32;nan
48862;BME280;34681;49.188;-0.374;2023-05-24T09:25:13;102342.94;;;22.02;nan
48862;BME280;34681;49.188;-0.374;2023-05-24T09:27:38;102345.66;;;21.79;nan
48862;BME280;34681;49.188;-0.374;2023-05-24T09:30:10;102326.69;;;21.43;nan
48862;BME280;34681;49.188;-0.374;2023-05-24T09:32:36;102337.13;;;21.25;nan
48862;BME280;34681;49.188;-0.374;2023-05-24T09:35:02;102319.00;;;21.45;nan
48862;BME280;34681;49.188;-0.374;2023-05-24T09:37:27;102327.69;;;21.81;nan
48862;BME280;34681;49.188;-0.374;2023-05-24T09:39:54;102334.72;;;22.00;nan
48862;BME280;34681;49.188;-0.374;2023-05-24T09:42:26;102328.13;;;21.15;nan
48862;BME280;34681;49.188;-0.374;2023-05-24T09:45:03;102322.28;;;21.49;nan
48862;BME280;34681;49.188;-0.374;2023-05-24T09:47:32;102333.06;;;21.60;nan
48862;BME280;34681;49.188;-0.374;2023-05-24T09:50:03;102344.72;;;20.51;nan
48862;BME280;34681;49.188;-0.374;2023-05-24T09:52:29;102340.47;;;19.98;nan
48862;BME280;34681;49.188;-0.374;2023-05-24T09:54:54;102340.47;;;20.06;nan
48862;BME280;34681;49.188;-0.374;2023-05-24T09:57:20;102327.53;;;19.64;nan
48862;BME280;34681;49.188;-0.374;2023-05-24T09:59:49;102324.59;;;19.74;nan
48862;BME280;34681;49.188;-0.374;2023-05-24T10:02:16;102334.59;;;19.59;nan
48862;BME280;34681;49.188;-0.374;2023-05-24T10:04:45;102335.44;;;18.91;nan
48862;BME280;34681;49.188;-0.374;2023-05-24T10:07:11;102317.03;;;18.64;nan
48862;BME280;34681;49.188;-0.374;2023-05-24T10:09:37;102310.53;;;18.99;nan
48862;BME280;34681;49.188;-0.374;2023-05-24T10:12:07;102319.78;;;18.64;nan
48862;BME280;34681;49.188;-0.374;2023-05-24T10:14:37;102333.53;;;18.30;nan
48862;BME280;34681;49.188;-0.374;2023-05-24T10:17:03;102320.56;;;18.13;nan
48862;BME280;34681;49.188;-0.374;2023-05-24T10:19:33;102324.41;;;18.56;nan
48862;BME280;34681;49.188;-0.374;2023-05-24T10:22:00;102316.03;;;18.65;nan
48862;BME280;34681;49.188;-0.374;2023-05-24T10:24:34;102309.44;;;18.66;nan
48862;BME280;34681;49.188;-0.374;2023-05-24T10:27:04;102317.16;;;19.06;nan
48862;BME280;34681;49.188;-0.374;2023-05-24T10:32:17;102316.41;;;18.70;nan
48862;BME280;34681;49.188;-0.374;2023-05-24T10:34:44;102310.72;;;18.54;nan
48862;BME280;34681;49.188;-0.374;2023-05-24T10:37:10;102305.78;;;18.66;nan
48862;BME280;34681;49.188;-0.374;2023-05-24T10:39:36;102305.84;;;18.74;nan
48862;BME280;34681;49.188;-0.374;2023-05-24T10:42:03;102303.38;;;18.89;nan
48862;BME280;34681;49.188;-0.374;2023-05-24T10:44:29;102297.75;;;19.06;nan
48862;BME280;34681;49.188;-0.374;2023-05-24T10:47:11;102298.78;;;19.05;nan
48862;BME280;34681;49.188;-0.374;2023-05-24T10:49:55;102307.22;;;18.96;nan
48862;BME280;34681;49.188;-0.374;2023-05-24T10:52:32;102318.03;;;19.07;nan
48862;BME280;34681;49.188;-0.374;2023-05-24T10:55:06;102304.97;;;18.99;nan
48862;BME280;34681;49.188;-0.374;2023-05-24T10:57:35;102304.31;;;19.05;nan
48862;BME280;34681;49.188;-0.374;2023-05-24T11:03:09;102305.72;;;19.09;nan
48862;BME280;34681;49.188;-0.374;2023-05-24T11:05:48;102301.50;;;18.97;nan
48862;BME280;34681;49.188;-0.374;2023-05-24T11:08:21;102300.94;;;18.94;nan
48862;BME280;34681;49.188;-0.374;2023-05-24T11:10:47;102295.91;;;18.89;nan
48862;BME280;34681;49.188;-0.374;2023-05-24T11:13:12;102301.59;;;19.14;nan
48862;BME280;34681;49.188;-0.374;2023-05-24T11:15:38;102312.19;;;19.18;nan
48862;BME280;34681;49.188;-0.374;2023-05-24T11:20:42;102310.41;;;19.09;nan
48862;BME280;34681;49.188;-0.374;2023-05-24T11:23:08;102304.09;;;18.99;nan
48862;BME280;34681;49.188;-0.374;2023-05-24T11:25:34;102295.34;;;19.12;nan
48862;BME280;34681;49.188;-0.374;2023-05-24T11:28:06;102288.56;;;19.06;nan
48862;BME280;34681;49.188;-0.374;2023-05-24T11:30:32;102290.63;;;19.04;nan
48862;BME280;34681;49.188;-0.374;2023-05-24T11:32:58;102288.31;;;19.33;nan
48862;BME280;34681;49.188;-0.374;2023-05-24T11:35:25;102300.28;;;19.34;nan
48862;BME280;34681;49.188;-0.374;2023-05-24T11:37:52;102290.66;;;19.46;nan
48862;BME280;34681;49.188;-0.374;2023-05-24T11:40:18;102297.84;;;19.65;nan
48862;BME280;34681;49.188;-0.374;2023-05-24T11:42:44;102286.84;;;19.47;nan
48862;BME280;34681;49.188;-0.374;2023-05-24T11:45:11;102297.72;;;19.41;nan
48862;BME280;34681;49.188;-0.374;2023-05-24T11:47:38;102295.00;;;19.15;nan
48862;BME280;34681;49.188;-0.374;2023-05-24T11:50:04;102298.41;;;19.00;nan
48862;BME280;34681;49.188;-0.374;2023-05-24T11:52:30;102290.88;;;19.27;nan
48862;BME280;34681;49.188;-0.374;2023-05-24T11:54:55;102295.09;;;19.73;nan
48862;BME280;34681;49.188;-0.374;2023-05-24T11:57:28;102301.34;;;19.83;nan
48862;BME280;34681;49.188;-0.374;2023-05-24T11:59:54;102294.00;;;19.58;nan
48862;BME280;34681;49.188;-0.374;2023-05-24T12:02:22;102288.00;;;19.36;nan
48862;BME280;34681;49.188;-0.374;2023-05-24T12:04:47;102299.22;;;19.27;nan
48862;BME280;34681;49.188;-0.374;2023-05-24T12:07:13;102296.97;;;19.22;nan
48862;BME280;34681;49.188;-0.374;2023-05-24T12:09:40;102290.28;;;19.07;nan
48862;BME280;34681;49.188;-0.374;2023-05-24T12:12:06;102286.91;;;19.21;nan
48862;BME280;34681;49.188;-0.374;2023-05-24T12:14:32;102301.84;;;19.62;nan
48862;BME280;34681;49.188;-0.374;2023-05-24T12:16:58;102298.72;;;19.31;nan
48862;BME280;34681;49.188;-0.374;2023-05-24T12:19:29;102290.13;;;19.08;nan
48862;BME280;34681;49.188;-0.374;2023-05-24T12:21:57;102286.00;;;19.13;nan
48862;BME280;34681;49.188;-0.374;2023-05-24T12:24:24;102281.53;;;19.20;nan
48862;BME280;34681;49.188;-0.374;2023-05-24T12:26:49;102280.69;;;19.35;nan
48862;BME280;34681;49.188;-0.374;2023-05-24T12:29:16;102281.13;;;19.15;nan
48862;BME280;34681;49.188;-0.374;2023-05-24T12:31:45;102276.59;;;19.48;nan
48862;BME280;34681;49.188;-0.374;2023-05-24T12:34:16;102280.19;;;19.32;nan
48862;BME280;34681;49.188;-0.374;2023-05-24T12:36:43;102271.69;;;18.99;nan
48862;BME280;34681;49.188;-0.374;2023-05-24T12:39:21;102271.09;;;19.14;nan
48862;BME280;34681;49.188;-0.374;2023-05-24T12:41:52;102274.81;;;19.39;nan
48862;BME280;34681;49.188;-0.374;2023-05-24T12:44:25;102271.56;;;19.09;nan
48862;BME280;34681;49.188;-0.374;2023-05-24T12:46:55;102255.63;;;19.11;nan
48862;BME280;34681;49.188;-0.374;2023-05-24T12:49:22;102259.91;;;19.40;nan
48862;BME280;34681;49.188;-0.374;2023-05-24T12:51:47;102266.47;;;19.73;nan
48862;BME280;34681;49.188;-0.374;2023-05-24T12:54:13;102264.75;;;19.80;nan
48862;BME280;34681;49.188;-0.374;2023-05-24T12:56:39;102254.16;;;19.91;nan
48862;BME280;34681;49.188;-0.374;2023-05-24T12:59:04;102259.84;;;19.66;nan
48862;BME280;34681;49.188;-0.374;2023-05-24T13:01:30;102261.56;;;19.58;nan
48862;BME280;34681;49.188;-0.374;2023-05-24T13:03:55;102264.06;;;19.78;nan
48862;BME280;34681;49.188;-0.374;2023-05-24T13:06:20;102247.84;;;19.57;nan
48862;BME280;34681;49.188;-0.374;2023-05-24T13:08:46;102263.28;;;19.59;nan
48862;BME280;34681;49.188;-0.374;2023-05-24T13:11:12;102251.31;;;19.59;nan